METAR Data
IDs: Format: Raw Decoded Include TAF

Data at: 1749 UTC 21 Sep 2018

KTME 211735Z AUTO 17009G14KT 10SM SCT030 33/25 A2996 RMK AO2
KTME 211715Z AUTO 16008KT 10SM SCT027 SCT032 SCT042 32/25 A2997 RMK AO2
KTME 211655Z AUTO 18009KT 10SM SCT026 32/26 A2998 RMK AO2
KTME 211635Z AUTO 17010KT 10SM SCT023 BKN028 31/26 A2998 RMK AO2
KTME 211615Z AUTO 17009G15KT 10SM SCT020 31/26 A2999 RMK AO2
KTME 211555Z AUTO 19011KT 10SM SCT019 31/26 A2998 RMK AO2
KTME 211535Z AUTO 17010G15KT 10SM BKN016 BKN022 30/26 A2998 RMK AO2
KTME 211515Z AUTO 16011KT 10SM SCT014 SCT022 30/26 A2998 RMK AO2
KTME 211455Z AUTO 17008KT 10SM FEW014 29/27 A2998 RMK AO2
KTME 211435Z AUTO 16005KT 10SM FEW015 FEW110 29/26 A2998 RMK AO2
KTME 211415Z AUTO 15006KT 10SM FEW015 SCT110 29/26 A2998 RMK AO2
KTME 211355Z AUTO 15004KT 10SM FEW020 28/27 A2998 RMK AO2
KTME 211335Z AUTO 13003KT 9SM SCT020 27/27 A2998 RMK AO2
KTME 211315Z AUTO 00000KT 8SM FEW021 27/26 A2997 RMK AO2
KTME 211255Z AUTO 12005KT 9SM FEW022 26/26 A2997 RMK AO2
KTME 211235Z AUTO 13005KT 8SM CLR 26/26 A2996 RMK AO2
KTME 211215Z AUTO 14004KT 9SM -DZ FEW060 FEW090 FEW120 26/26 A2996 RMK AO2
KTME 211155Z AUTO 14004KT 10SM FEW060 26/26 A2996 RMK AO2
KTME 211135Z AUTO 14006KT 10SM CLR 27/26 A2995 RMK AO2
KTME 211115Z AUTO 13005KT 10SM CLR 27/26 A2995 RMK AO2
KTME 211055Z AUTO 13006KT 10SM FEW110 26/26 A2995 RMK AO2
KTME 211035Z AUTO 13004KT 10SM -DZ FEW042 SCT075 BKN110 27/26 A2995 RMK AO2
KTME 211015Z AUTO 15003KT 10SM FEW044 FEW065 BKN110 27/26 A2995 RMK AO2
KTME 210955Z AUTO 16003KT 10SM CLR 27/26 A2994 RMK AO2
KTME 210935Z AUTO 16004KT 10SM CLR 27/26 A2994 RMK AO2
KTME 210915Z AUTO 15003KT 10SM SCT110 27/26 A2994 RMK AO2
KTME 210855Z AUTO 14004KT 10SM SCT100 SCT120 27/26 A2994 RMK AO2
KTME 210835Z AUTO 17004KT 10SM CLR 27/26 A2994 RMK AO2
KTME 210815Z AUTO 17004KT 10SM CLR 27/26 A2994 RMK AO2
KTME 210755Z AUTO 16005KT 10SM FEW100 27/26 A2994 RMK AO2
KTME 210735Z AUTO 16005KT 10SM FEW060 FEW080 SCT100 27/25 A2994 RMK AO2
KTME 210715Z AUTO 16005KT 10SM FEW075 FEW090 FEW120 27/26 A2994 RMK AO2
KTME 210655Z AUTO 16005KT 10SM FEW045 SCT060 BKN095 27/25 A2995 RMK AO2
KTME 210635Z AUTO 15005KT 10SM FEW047 SCT060 BKN090 27/25 A2996 RMK AO2
KTME 210615Z AUTO 15005KT 10SM FEW045 SCT065 BKN085 27/25 A2996 RMK AO2
KTME 210555Z AUTO 15005KT 10SM CLR 27/25 A2997 RMK AO2
KTME 210535Z AUTO 15005KT 10SM CLR 27/25 A2997 RMK AO2
KTME 210515Z AUTO 16005KT 10SM CLR 26/25 A2998 RMK AO2
KTME 210455Z AUTO 16005KT 10SM CLR 27/25 A2998 RMK AO2
KTME 210435Z AUTO 15005KT 10SM CLR 27/25 A2998 RMK AO2
KTME 210415Z AUTO 16005KT 10SM CLR 27/25 A2998 RMK AO2
KTME 210355Z AUTO 16004KT 10SM FEW020 27/25 A2998 RMK AO2
KTME 210335Z AUTO 14004KT 10SM CLR 27/25 A2998 RMK AO2
KTME 210315Z AUTO 13005KT 10SM CLR 27/25 A2997 RMK AO2
KTME 210255Z AUTO 15005KT 10SM CLR 27/25 A2996 RMK AO2
KTME 210235Z AUTO 13006KT 10SM CLR 27/25 A2996 RMK AO2
KTME 210215Z AUTO 15005KT 10SM FEW055 SCT070 SCT100 27/25 A2995 RMK AO2
KTME 210155Z AUTO 00000KT 10SM FEW065 SCT095 BKN110 26/25 A2995 RMK AO2
KTME 210135Z AUTO 00000KT 10SM FEW055 FEW070 BKN075 26/25 A2995 RMK AO2
KTME 210115Z AUTO 00000KT 10SM FEW060 SCT075 SCT100 26/24 A2995 RMK AO2
KTME 210055Z AUTO 00000KT 10SM CLR 26/24 A2994 RMK AO2
KTME 210035Z AUTO 00000KT 10SM CLR 26/24 A2993 RMK AO2
KTME 210015Z AUTO 11003KT 10SM FEW033 SCT040 26/24 A2993 RMK AO2
KTME 202355Z AUTO 13003KT 10SM SCT034 SCT041 SCT055 26/24 A2993 RMK AO2
KTME 202335Z AUTO 07006KT 9SM FEW050 FEW070 SCT095 26/24 A2993 RMK AO2
KTME 202315Z AUTO 10006KT 10SM CLR 26/24 A2993 RMK AO2
KTME 202255Z AUTO 09004KT 10SM FEW037 FEW047 SCT055 27/24 A2992 RMK AO2
KTME 202235Z AUTO 00000KT 10SM FEW046 FEW085 FEW110 27/24 A2993 RMK AO2
KTME 202215Z AUTO 10004KT 10SM FEW041 BKN085 SCT110 26/23 A2992 RMK AO2
KTME 202155Z AUTO 10010G22KT 3SM -RA SCT030 BKN043 BKN065 26/23 A2992 RMK AO2
KTME 202135Z AUTO 13007G12KT 10SM FEW030 SCT095 31/24 A2991 RMK AO2
KTME 202115Z AUTO 14010KT 10SM CLR 32/25 A2991 RMK AO2
KTME 202055Z AUTO 14008KT 10SM CLR 32/24 A2992 RMK AO2
KTME 202035Z AUTO 16008KT 10SM FEW060 FEW070 31/24 A2992 RMK AO2
KTME 202015Z AUTO 16006G12KT 10SM FEW032 SCT060 BKN070 30/25 A2993 RMK AO2
KTME 201955Z AUTO 15005G11KT 9SM FEW034 SCT070 BKN080 29/24 A2995 RMK AO2
KTME 201935Z AUTO 17009KT 10SM CLR 31/24 A2995 RMK AO2
KTME 201915Z AUTO 19010KT 10SM FEW031 FEW038 FEW048 32/24 A2995 RMK AO2
KTME 201855Z AUTO 16007KT 10SM FEW035 FEW041 SCT048 31/24 A2995 RMK AO2
KTME 201835Z AUTO 15009KT 10SM CLR 31/23 A2997 RMK AO2
KTME 201815Z AUTO 16006KT 10SM CLR 31/24 A2997 RMK AO2
KTME 201755Z AUTO 19007KT 10SM CLR 31/24 A2998 RMK AO2
KTME 201735Z AUTO 18007KT 10SM CLR 30/24 A2998 RMK AO2
KTME 201715Z AUTO 15008KT 10SM CLR 30/24 A2999 RMK AO2
KTME 201655Z AUTO 17010KT 10SM FEW028 SCT033 SCT040 31/24 A3000 RMK AO2
KTME 201635Z AUTO 16007KT 10SM SCT026 SCT032 SCT040 31/24 A3000 RMK AO2
KTME 201615Z AUTO VRB04G10KT 10SM FEW022 SCT038 BKN047 31/25 A3000 RMK AO2
KTME 201555Z AUTO 17006KT 10SM SCT021 BKN027 BKN048 30/25 A3000 RMK AO2
KTME 201535Z AUTO 17006KT 10SM SCT020 SCT025 SCT031 30/26 A3000 RMK AO2
KTME 201515Z AUTO 17008KT 10SM BKN019 BKN024 BKN031 29/26 A3000 RMK AO2
KTME 201455Z AUTO 17007KT 10SM SCT019 29/25 A2999 RMK AO2
KTME 201435Z AUTO 16008KT 10SM CLR 29/26 A2999 RMK AO2
KTME 201415Z AUTO 16007KT 10SM CLR 29/26 A2998 RMK AO2
KTME 201355Z AUTO 16005KT 10SM CLR 28/26 A2998 RMK AO2
KTME 201335Z AUTO 16003KT 10SM CLR 27/26 A2998 RMK AO2
KTME 201315Z AUTO 00000KT 9SM CLR 26/26 A2997 RMK AO2
KTME 201255Z AUTO 10003KT 7SM CLR 25/25 A2996 RMK AO2
KTME 201235Z AUTO 17004KT 7SM CLR 25/24 A2996 RMK AO2
KTME 201215Z AUTO 15003KT 8SM CLR 25/24 A2996 RMK AO2
KTME 201155Z AUTO 16003KT 8SM CLR 25/24 A2995 RMK AO2
KTME 201135Z AUTO 00000KT 9SM CLR 25/25 A2995 RMK AO2
KTME 201115Z AUTO 12003KT 9SM SCT015 SCT023 SCT031 25/24 A2995 RMK AO2
KTME 201055Z AUTO 09003KT 7SM SCT015 SCT023 24/24 A2995 RMK AO2
KTME 201035Z AUTO 08004KT 8SM CLR 24/24 A2995 RMK AO2
KTME 201015Z AUTO 09003KT 8SM CLR 24/24 A2995 RMK AO2
KTME 200955Z AUTO 09003KT 9SM CLR 24/24 A2995 RMK AO2
KTME 200935Z AUTO 00000KT 10SM CLR 25/24 A2995 RMK AO2
KTME 200915Z AUTO 00000KT 10SM CLR 25/24 A2995 RMK AO2
KTME 200855Z AUTO 00000KT 10SM CLR 25/24 A2995 RMK AO2
KTME 200835Z AUTO 17004KT 10SM SCT020 25/24 A2995 RMK AO2
KTME 200815Z AUTO 00000KT 10SM BKN019 24/24 A2996 RMK AO2
KTME 200755Z AUTO 10003KT 10SM FEW017 24/24 A2997 RMK AO2
KTME 200735Z AUTO 07006KT 10SM CLR 24/23 A2997 RMK AO2
KTME 200715Z AUTO 08003KT 10SM CLR 24/23 A2997 RMK AO2
KTME 200655Z AUTO 00000KT 10SM CLR 24/23 A2996 RMK AO2
KTME 200635Z AUTO 00000KT 10SM CLR 25/24 A2996 RMK AO2
KTME 200615Z AUTO 19003KT 10SM CLR 25/24 A2997 RMK AO2
KTME 200555Z AUTO 00000KT 10SM CLR 25/24 A2997 RMK AO2